Time;durP1;ratioP1;P1;durP2;ratioP2;P2;SDS_P1;SDS_P2;PMS_P1;PMS_P2;Temp;Humidity;BMP_temperature;BMP_pressure;BME280_temperature;BME280_humidity;BME280_pressure;Samples;Min_cycle;Max_cycle;Signal;HPM_P1;HPM_P2
2022/05/15 00:01:07;;;;;;;7.10;3.08;;;24.00;99.90;;;;;;5052557;28;20523;-48
2022/05/15 00:03:33;;;;;;;7.30;3.53;;;24.10;99.90;;;;;;5052038;28;20467;-49
2022/05/15 00:06:02;;;;;;;8.02;3.70;;;24.00;99.90;;;;;;5052090;28;20025;-48
2022/05/15 00:08:31;;;;;;;7.90;3.97;;;24.00;99.90;;;;;;5052191;28;20178;-48
2022/05/15 00:10:57;;;;;;;7.28;3.25;;;24.00;99.90;;;;;;5051912;28;20033;-48
2022/05/15 00:13:25;;;;;;;6.45;2.60;;;24.00;99.90;;;;;;5051816;28;20028;-48
2022/05/15 00:15:51;;;;;;;8.45;3.35;;;24.00;99.90;;;;;;5052000;28;20033;-48
2022/05/15 00:18:19;;;;;;;6.05;3.17;;;24.00;99.90;;;;;;5051741;28;20469;-45
2022/05/15 00:20:45;;;;;;;6.65;2.92;;;24.00;99.90;;;;;;5051746;28;20028;-45
2022/05/15 00:23:11;;;;;;;9.05;3.33;;;24.00;99.90;;;;;;5052022;28;20381;-45
2022/05/15 00:25:38;;;;;;;9.25;3.38;;;24.00;99.90;;;;;;5051731;28;20037;-45
2022/05/15 00:28:04;;;;;;;8.93;3.47;;;24.00;99.90;;;;;;5050732;28;20029;-45
2022/05/15 00:30:31;;;;;;;9.73;3.10;;;24.00;99.90;;;;;;5051675;28;20025;-45
2022/05/15 00:32:59;;;;;;;6.95;2.78;;;24.00;99.90;;;;;;5051573;28;20108;-45
2022/05/15 00:35:26;;;;;;;9.05;3.53;;;24.00;99.90;;;;;;5051650;28;20025;-47
2022/05/15 00:37:52;;;;;;;9.52;3.08;;;24.00;99.90;;;;;;5051402;28;20028;-46
2022/05/15 00:40:20;;;;;;;5.68;3.13;;;24.00;99.90;;;;;;5051478;28;20032;-48
2022/05/15 00:42:46;;;;;;;9.05;3.15;;;24.00;99.90;;;;;;5051341;28;20014;-47
2022/05/15 00:45:14;;;;;;;10.02;3.53;;;24.00;99.90;;;;;;5051657;28;20024;-46
2022/05/15 00:47:40;;;;;;;;;;;24.00;99.90;;;;;;5051933;28;20029;-46
2022/05/15 00:50:08;;;;;;;;;;;24.00;99.90;;;;;;5051720;28;19965;-46
2022/05/15 00:52:35;;;;;;;;;;;24.00;99.90;;;;;;5051644;28;19916;-46
2022/05/15 00:55:14;;;;;;;;;;;24.00;99.90;;;;;;5051988;28;19905;-46
2022/05/15 00:57:48;;;;;;;;;;;24.00;99.90;;;;;;5051601;28;19912;-46
2022/05/15 01:00:17;;;;;;;;;;;24.00;99.90;;;;;;5051968;28;19920;-47
2022/05/15 01:02:44;;;;;;;;;;;24.00;99.90;;;;;;5051812;28;19994;-46
2022/05/15 01:05:11;;;;;;;;;;;24.00;99.90;;;;;;5051733;28;20012;-47
2022/05/15 01:07:36;;;;;;;;;;;24.00;99.90;;;;;;5051532;28;19909;-46
2022/05/15 01:10:02;;;;;;;;;;;24.00;99.90;;;;;;5051679;28;19932;-46
2022/05/15 01:12:28;;;;;;;;;;;24.00;99.90;;;;;;5051692;28;20311;-47
2022/05/15 01:14:53;;;;;;;;;;;24.00;99.90;;;;;;5051433;28;19911;-47
2022/05/15 01:17:19;;;;;;;;;;;24.00;99.90;;;;;;5051576;28;19931;-47
2022/05/15 01:19:45;;;;;;;;;;;24.00;99.90;;;;;;5050181;28;20272;-47
2022/05/15 01:22:14;;;;;;;;;;;24.00;99.90;;;;;;5051442;28;20368;-46
2022/05/15 01:24:41;;;;;;;;;;;24.00;99.90;;;;;;5051286;28;19920;-47
2022/05/15 01:27:09;;;;;;;;;;;23.90;99.90;;;;;;5051426;28;19928;-46
2022/05/15 01:29:36;;;;;;;;;;;23.90;99.90;;;;;;5051369;28;19905;-47
2022/05/15 01:32:03;;;;;;;;;;;23.90;99.90;;;;;;5051487;28;20400;-46
2022/05/15 01:34:28;;;;;;;;;;;23.90;99.90;;;;;;5051467;28;20344;-47
2022/05/15 01:36:54;;;;;;;;;;;23.90;99.90;;;;;;5051264;28;19911;-46
2022/05/15 01:39:20;;;;;;;;;;;23.90;99.90;;;;;;5053742;28;20357;-47
2022/05/15 01:41:46;;;;;;;;;;;23.90;99.90;;;;;;5055321;28;19939;-47
2022/05/15 01:44:11;;;;;;;;;;;23.90;99.90;;;;;;5055141;28;20352;-46
2022/05/15 01:46:37;;;;;;;;;;;23.90;99.90;;;;;;5055219;28;19912;-46
2022/05/15 01:49:06;;;;;;;;;;;23.90;99.90;;;;;;5055244;28;19908;-46
2022/05/15 01:51:32;;;;;;;;;;;23.90;99.90;;;;;;5055117;28;20283;-46
2022/05/15 01:53:58;;;;;;;;;;;23.80;99.90;;;;;;5054899;28;19904;-47
2022/05/15 01:56:24;;;;;;;;;;;23.90;99.90;;;;;;5054801;28;20394;-47
2022/05/15 01:58:50;;;;;;;;;;;23.80;99.90;;;;;;5054815;28;19909;-46
2022/05/15 02:01:16;;;;;;;;;;;23.90;99.90;;;;;;5055205;28;19917;-47
2022/05/15 02:03:41;;;;;;;;;;;23.80;99.90;;;;;;5054508;28;19909;-47
2022/05/15 02:06:07;;;;;;;;;;;23.80;99.90;;;;;;5054641;28;19988;-47
2022/05/15 02:08:34;;;;;;;;;;;23.80;99.90;;;;;;5054795;28;20299;-46
2022/05/15 02:11:00;;;;;;;;;;;23.80;99.90;;;;;;5054836;28;19905;-46
2022/05/15 02:13:26;;;;;;;;;;;23.80;99.90;;;;;;5054767;28;19909;-46
2022/05/15 02:15:51;;;;;;;;;;;23.80;99.90;;;;;;5054467;28;19905;-47
2022/05/15 02:18:17;;;;;;;;;;;23.80;99.90;;;;;;5053274;28;19931;-47
2022/05/15 02:20:43;;;;;;;;;;;23.80;99.90;;;;;;5053146;28;20257;-46
2022/05/15 02:23:08;;;;;;;;;;;23.80;99.90;;;;;;5054358;28;19931;-47
2022/05/15 02:25:34;;;;;;;;;;;23.80;99.90;;;;;;5054484;28;19908;-46
2022/05/15 02:28:00;;;;;;;;;;;23.80;99.90;;;;;;5053050;28;19913;-46
2022/05/15 02:30:26;;;;;;;;;;;23.80;99.90;;;;;;5054421;28;20015;-47
2022/05/15 02:32:52;;;;;;;;;;;23.80;99.90;;;;;;5054218;28;20375;-47
2022/05/15 02:35:18;;;;;;;;;;;23.80;99.90;;;;;;5054276;28;19908;-46
2022/05/15 02:37:44;;;;;;;;;;;23.80;99.90;;;;;;5054259;28;19904;-47
2022/05/15 02:40:11;;;;;;;;;;;23.80;99.90;;;;;;5054153;28;20414;-46
2022/05/15 02:42:37;;;;;;;;;;;23.80;99.90;;;;;;5054259;28;19905;-46
2022/05/15 02:45:04;;;;;;;;;;;23.70;99.90;;;;;;5054267;28;20264;-47
2022/05/15 02:47:29;;;;;;;;;;;23.70;99.90;;;;;;5053872;28;19967;-47
2022/05/15 02:52:39;;;;;;;;;;;23.70;99.90;;;;;;5053899;28;19911;-46
2022/05/15 02:55:05;;;;;;;;;;;23.70;99.90;;;;;;5054293;28;19912;-47
2022/05/15 02:57:31;;;;;;;;;;;23.70;99.90;;;;;;5053763;28;20279;-47
2022/05/15 02:59:56;;;;;;;;;;;23.70;99.90;;;;;;5052853;28;19952;-46
2022/05/15 03:02:22;;;;;;;;;;;23.60;99.90;;;;;;5052474;28;19962;-46
2022/05/15 03:04:49;;;;;;;;;;;23.60;99.90;;;;;;5053522;28;19912;-46
2022/05/15 03:07:15;;;;;;;;;;;23.60;99.90;;;;;;5053555;28;19909;-46
2022/05/15 03:09:41;;;;;;;;;;;23.60;99.90;;;;;;5053506;28;19912;-46
2022/05/15 03:12:06;;;;;;;;;;;23.60;99.90;;;;;;5053795;28;20000;-46
2022/05/15 03:14:32;;;;;;;;;;;23.60;99.90;;;;;;5053574;28;19931;-46
2022/05/15 03:16:58;;;;;;;;;;;23.60;99.90;;;;;;5053423;28;19935;-47
2022/05/15 03:19:24;;;;;;;;;;;23.60;99.90;;;;;;5053341;28;20318;-46
2022/05/15 03:21:50;;;;;;;;;;;23.60;99.90;;;;;;5053339;28;20050;-46
2022/05/15 03:24:15;;;;;;;;;;;23.60;99.90;;;;;;5053275;28;20058;-46
2022/05/15 03:26:43;;;;;;;;;;;23.60;99.90;;;;;;5053209;28;19991;-47
2022/05/15 03:29:10;;;;;;;;;;;23.60;99.90;;;;;;5053347;28;19908;-46
2022/05/15 03:31:36;;;;;;;;;;;23.60;99.90;;;;;;5053356;28;19990;-47
2022/05/15 03:34:02;;;;;;;;;;;23.50;99.90;;;;;;5051817;28;19904;-46
2022/05/15 03:36:28;;;;;;;;;;;23.50;99.90;;;;;;5053207;28;20279;-46
2022/05/15 03:38:54;;;;;;;;;;;23.60;99.90;;;;;;5052988;28;19904;-46
2022/05/15 03:41:19;;;;;;;;;;;23.50;99.90;;;;;;5052860;28;20404;-47
2022/05/15 03:43:45;;;;;;;;;;;23.50;99.90;;;;;;5052640;28;20380;-47
2022/05/15 03:46:11;;;;;;;;;;;23.50;99.90;;;;;;5052875;28;19904;-46
2022/05/15 03:48:36;;;;;;;;;;;23.50;99.90;;;;;;5053112;28;19991;-46
2022/05/15 03:51:03;;;;;;;;;;;23.50;99.90;;;;;;5052735;28;19905;-46
2022/05/15 03:53:29;;;;;;;;;;;23.50;99.90;;;;;;5052851;28;19905;-46
2022/05/15 03:55:58;;;;;;;;;;;23.40;99.90;;;;;;5052497;28;19905;-46
2022/05/15 03:58:28;;;;;;;;;;;23.40;99.90;;;;;;5052560;28;20035;-46
2022/05/15 04:00:54;;;;;;;;;;;23.40;99.90;;;;;;5053210;28;19917;-46
2022/05/15 04:03:19;;;;;;;;;;;23.40;99.90;;;;;;5052325;28;19916;-46
2022/05/15 04:05:45;;;;;;;;;;;23.40;99.90;;;;;;5051283;28;19909;-46
2022/05/15 04:08:11;;;;;;;;;;;23.40;99.90;;;;;;5052574;28;20356;-46
2022/05/15 04:10:37;;;;;;;;;;;23.40;99.90;;;;;;5052702;28;19911;-46
2022/05/15 04:13:03;;;;;;;;;;;23.40;99.90;;;;;;5052339;28;19912;-47
2022/05/15 04:15:29;;;;;;;;;;;23.40;99.90;;;;;;5051006;28;19904;-46
2022/05/15 04:17:54;;;;;;;;;;;23.40;99.90;;;;;;5052331;28;20023;-46
2022/05/15 04:20:21;;;;;;;;;;;23.40;99.90;;;;;;5052124;28;19915;-46
2022/05/15 04:22:47;;;;;;;;;;;23.40;99.90;;;;;;5052182;28;19912;-46
2022/05/15 04:25:12;;;;;;;;;;;23.40;99.90;;;;;;5052036;28;19916;-46
2022/05/15 04:27:38;;;;;;;;;;;23.40;99.90;;;;;;5050995;28;19911;-46
2022/05/15 04:30:04;;;;;;;;;;;23.30;99.90;;;;;;5052030;28;19958;-47
2022/05/15 04:32:30;;;;;;;;;;;23.30;99.90;;;;;;5052002;28;19908;-46
2022/05/15 04:34:56;;;;;;;;;;;23.30;99.90;;;;;;5051936;28;19912;-46
2022/05/15 04:37:21;;;;;;;;;;;23.30;99.90;;;;;;5052014;28;19905;-46
2022/05/15 04:39:47;;;;;;;;;;;23.30;99.90;;;;;;5051843;28;19905;-47
2022/05/15 04:42:13;;;;;;;;;;;23.30;99.90;;;;;;5051867;28;19905;-46
2022/05/15 04:44:38;;;;;;;;;;;23.30;99.90;;;;;;5051874;28;20058;-46
2022/05/15 04:47:04;;;;;;;;;;;23.30;99.90;;;;;;5051764;28;19905;-46
2022/05/15 04:49:30;;;;;;;;;;;23.20;99.90;;;;;;5051550;28;19999;-47
2022/05/15 04:51:55;;;;;;;;;;;23.30;99.90;;;;;;5051986;28;19905;-46
2022/05/15 04:54:21;;;;;;;;;;;23.20;99.90;;;;;;5051753;28;19908;-46
2022/05/15 04:56:46;;;;;;;;;;;23.20;99.90;;;;;;5051694;28;19911;-47
2022/05/15 04:59:12;;;;;;;;;;;23.20;99.90;;;;;;5050748;28;19944;-47
2022/05/15 05:01:38;;;;;;;;;;;23.20;99.90;;;;;;5051579;28;19921;-46
2022/05/15 05:04:04;;;;;;;;;;;23.20;99.90;;;;;;5051518;28;20348;-46
2022/05/15 05:06:29;;;;;;;;;;;23.10;99.90;;;;;;5051585;28;20003;-47
2022/05/15 05:08:55;;;;;;;;;;;23.20;99.90;;;;;;5051413;28;20003;-46
2022/05/15 05:11:21;;;;;;;;;;;23.10;99.90;;;;;;5050327;28;19900;-46
2022/05/15 05:13:47;;;;;;;;;;;23.10;99.90;;;;;;5053237;28;19958;-46
2022/05/15 05:16:13;;;;;;;;;;;23.10;99.90;;;;;;5054644;28;19900;-46
2022/05/15 05:18:38;;;;;;;;;;;23.10;99.90;;;;;;5055422;28;19911;-46
2022/05/15 05:21:04;;;;;;;;;;;23.20;99.90;;;;;;5055912;28;19991;-46
2022/05/15 05:23:30;;;;;;;;;;;23.10;99.90;;;;;;5055647;28;19944;-46
2022/05/15 05:25:55;;;;;;;;;;;23.10;99.90;;;;;;5055638;28;20355;-46
2022/05/15 05:28:21;;;;;;;;;;;23.10;99.90;;;;;;5055604;28;19923;-46
2022/05/15 05:30:47;;;;;;;;;;;23.10;99.90;;;;;;5055423;28;20261;-46
2022/05/15 05:33:13;;;;;;;;;;;23.10;99.90;;;;;;5055665;28;19912;-46
2022/05/15 05:35:39;;;;;;;;;;;23.10;99.90;;;;;;5055385;28;19905;-47
2022/05/15 05:38:05;;;;;;;;;;;23.10;99.90;;;;;;5055262;28;20364;-46
2022/05/15 05:40:30;;;;;;;;;;;23.10;99.90;;;;;;5055291;28;19955;-46
2022/05/15 05:42:56;;;;;;;;;;;23.00;99.90;;;;;;5055073;28;19913;-46
2022/05/15 05:45:22;;;;;;;;;;;23.00;99.90;;;;;;5055209;28;19919;-46
2022/05/15 05:47:48;;;;;;;;;;;23.10;99.90;;;;;;5055216;28;20369;-46
2022/05/15 05:50:15;;;;;;;;;;;23.10;99.90;;;;;;5055183;28;20387;-46
2022/05/15 05:52:41;;;;;;;;;;;23.10;99.90;;;;;;5055326;28;20271;-46
2022/05/15 05:55:10;;;;;;;;;;;23.10;99.90;;;;;;5055041;28;20042;-47
2022/05/15 05:57:36;;;;;;;;;;;23.10;99.90;;;;;;5054918;28;19961;-46
2022/05/15 06:00:03;;;;;;;;;;;23.10;99.90;;;;;;5054738;28;19912;-46
2022/05/15 06:02:29;;;;;;;;;;;23.10;99.90;;;;;;5054794;28;19962;-46
2022/05/15 06:04:54;;;;;;;;;;;23.10;99.90;;;;;;5054686;28;19917;-46
2022/05/15 06:07:23;;;;;;;;;;;23.10;99.90;;;;;;5054654;28;19931;-47
2022/05/15 06:09:49;;;;;;;;;;;23.10;99.90;;;;;;5054720;28;19959;-47
2022/05/15 06:12:15;;;;;;;;;;;23.10;99.90;;;;;;5054792;28;19905;-47
2022/05/15 06:14:41;;;;;;;;;;;23.10;99.90;;;;;;5054543;28;20367;-47
2022/05/15 06:17:07;;;;;;;;;;;23.10;99.90;;;;;;5054560;28;19995;-46
2022/05/15 06:19:33;;;;;;;;;;;23.10;99.90;;;;;;5054356;28;19912;-47
2022/05/15 06:21:58;;;;;;;;;;;23.20;99.90;;;;;;5053305;28;19904;-46
2022/05/15 06:24:27;;;;;;;;;;;23.10;99.90;;;;;;5053714;28;19913;-46
2022/05/15 06:26:54;;;;;;;;;;;23.20;99.90;;;;;;5052609;28;19992;-46
2022/05/15 06:29:19;;;;;;;;;;;23.20;99.90;;;;;;5054474;28;19904;-46
2022/05/15 06:31:46;;;;;;;;;;;23.20;99.90;;;;;;5054411;28;19963;-46
2022/05/15 06:34:13;;;;;;;;;;;23.20;99.90;;;;;;5052986;28;19916;-46
2022/05/15 06:36:39;;;;;;;;;;;23.30;99.90;;;;;;5054160;28;19916;-46
2022/05/15 06:39:05;;;;;;;;;;;23.30;99.90;;;;;;5054014;28;19958;-47
2022/05/15 06:41:31;;;;;;;;;;;23.30;99.90;;;;;;5054045;28;20341;-47
2022/05/15 06:43:57;;;;;;;;;;;23.40;99.90;;;;;;5053898;28;19923;-47
2022/05/15 06:46:22;;;;;;;;;;;23.40;99.90;;;;;;5053900;28;20341;-47
2022/05/15 06:48:49;;;;;;;;;;;23.40;99.90;;;;;;5054102;28;20396;-46
2022/05/15 06:51:16;;;;;;;;;;;23.40;99.90;;;;;;5054088;28;19904;-46
2022/05/15 06:53:43;;;;;;;;;;;23.50;99.90;;;;;;5053860;28;19912;-46
2022/05/15 06:59:09;;;;;;;;;;;23.50;99.90;;;;;;5011684;28;19945;-46
2022/05/15 07:01:35;;;;;;;;;;;23.50;99.90;;;;;;5044600;28;20066;-46
2022/05/15 07:04:01;;;;;;;;;;;23.60;99.90;;;;;;5053406;28;19923;-46
2022/05/15 07:06:26;;;;;;;;;;;23.60;99.90;;;;;;5053554;28;19905;-47
2022/05/15 07:08:52;;;;;;;;;;;23.60;99.90;;;;;;5053458;28;19905;-48
2022/05/15 07:11:18;;;;;;;;;;;23.60;99.90;;;;;;5054000;28;19944;-48
2022/05/15 07:13:43;;;;;;;;;;;23.60;99.90;;;;;;5053465;28;19905;-47
2022/05/15 07:16:10;;;;;;;;;;;23.70;99.90;;;;;;5053417;28;19905;-47
2022/05/15 07:18:37;;;;;;;;;;;23.70;99.90;;;;;;5053434;28;19905;-47
2022/05/15 07:21:03;;;;;;;;;;;23.70;99.90;;;;;;5052050;28;19905;-48
2022/05/15 07:23:29;;;;;;;;;;;23.80;99.90;;;;;;5053234;28;19915;-48
2022/05/15 07:25:57;;;;;;;;;;;23.80;99.90;;;;;;5051879;28;19999;-47
2022/05/15 07:28:23;;;;;;;;;;;23.80;99.90;;;;;;5053205;28;19905;-47
2022/05/15 07:30:49;;;;;;;;;;;23.80;99.90;;;;;;5053259;28;20352;-47
2022/05/15 07:33:19;;;;;;;;;;;23.80;99.90;;;;;;5052977;28;19911;-47
2022/05/15 07:35:45;;;;;;;;;;;23.80;99.90;;;;;;5052744;28;19911;-47
2022/05/15 07:38:10;;;;;;;;;;;23.90;99.90;;;;;;5052749;28;19908;-47
2022/05/15 07:40:36;;;;;;;;;;;23.90;99.90;;;;;;5053112;28;19905;-47
2022/05/15 07:43:05;;;;;;;;;;;23.90;99.90;;;;;;5052649;28;19999;-48
2022/05/15 07:45:31;;;;;;;;;;;23.90;99.90;;;;;;5052917;28;19909;-48
2022/05/15 07:47:57;;;;;;;;;;;23.90;99.90;;;;;;5051511;28;20003;-48
2022/05/15 07:50:22;;;;;;;;;;;23.90;99.90;;;;;;5052876;28;19904;-48
2022/05/15 07:52:48;;;;;;;;;;;23.90;99.90;;;;;;5052854;28;19905;-47
2022/05/15 07:55:14;;;;;;;;;;;23.90;99.90;;;;;;5052769;28;19912;-48
2022/05/15 07:57:39;;;;;;;;;;;23.90;99.90;;;;;;5052541;28;20249;-48
2022/05/15 08:00:06;;;;;;;;;;;23.90;99.90;;;;;;5052338;28;19917;-48
2022/05/15 08:02:32;;;;;;;;;;;24.00;99.90;;;;;;5052306;28;19905;-48
2022/05/15 08:10:26;;;;;;;;;;;24.00;99.90;;;;;;5052535;28;20011;-48
2022/05/15 08:12:51;;;;;;;;;;;24.10;99.90;;;;;;5052580;28;19905;-48
2022/05/15 08:15:17;;;;;;;;;;;24.00;99.90;;;;;;5052362;28;19958;-47
2022/05/15 08:17:43;;;;;;;;;;;24.10;99.90;;;;;;5052142;28;19908;-48
2022/05/15 08:25:38;;;;;;;;;;;24.10;99.90;;;;;;5052101;28;19993;-48
2022/05/15 08:28:04;;;;;;;;;;;24.10;99.90;;;;;;5051880;28;20380;-48
2022/05/15 08:30:31;;;;;;;;;;;24.10;99.90;;;;;;5051966;28;19905;-48
2022/05/15 08:32:57;;;;;;;;;;;24.10;99.90;;;;;;5051820;28;20357;-48
2022/05/15 08:35:22;;;;;;;;;;;24.10;99.90;;;;;;5051994;28;19905;-48
2022/05/15 08:37:48;;;;;;;;;;;24.10;99.90;;;;;;5051793;28;19904;-48
2022/05/15 08:40:14;;;;;;;;;;;24.10;99.90;;;;;;5051694;28;19913;-48
2022/05/15 08:42:50;;;;;;;;;;;24.10;99.90;;;;;;5051583;28;20276;-48
2022/05/15 08:45:18;;;;;;;;;;;24.20;99.90;;;;;;5051572;28;20027;-48
2022/05/15 08:47:45;;;;;;;;;;;24.20;99.90;;;;;;5050971;28;19905;-48
2022/05/15 08:50:16;;;;;;;;;;;24.20;99.90;;;;;;5051550;28;19911;-48
2022/05/15 08:52:54;;;;;;;;;;;24.20;99.90;;;;;;5051570;28;19932;-48
2022/05/15 08:55:25;;;;;;;;;;;24.20;99.90;;;;;;5050203;28;20106;-48
2022/05/15 08:57:50;;;;;;;;;;;24.20;99.90;;;;;;5051496;28;20307;-48
2022/05/15 09:00:19;;;;;;;;;;;24.30;99.90;;;;;;5051312;28;19920;-48
2022/05/15 09:02:44;;;;;;;;;;;24.20;99.90;;;;;;5051421;28;19931;-48
2022/05/15 09:05:11;;;;;;;;;;;24.30;99.90;;;;;;5051442;28;19921;-48
2022/05/15 09:07:56;;;;;;;;;;;24.30;99.90;;;;;;5051558;28;19904;-48
2022/05/15 09:10:25;;;;;;;;;;;24.30;99.90;;;;;;5051648;28;19944;-48
2022/05/15 09:12:58;;;;;;;;;;;24.30;99.90;;;;;;5051591;28;20276;-48
2022/05/15 09:15:26;;;;;;;;;;;24.30;99.90;;;;;;5051603;28;20357;-48
2022/05/15 09:17:58;;;;;;;;;;;24.30;99.90;;;;;;5051649;28;19995;-48
2022/05/15 09:20:24;;;;;;;;;;;24.30;99.90;;;;;;5051566;28;20443;-48
2022/05/15 09:23:16;;;;;;;;;;;24.40;99.90;;;;;;5051384;28;19992;-48
2022/05/15 09:25:41;;;;;;;;;;;24.40;99.90;;;;;;5020375;28;19923;-48
2022/05/15 09:28:08;;;;;;;;;;;24.40;99.90;;;;;;5051540;28;19991;-48
2022/05/15 09:30:35;;;;;;;;;;;24.40;99.90;;;;;;5051374;28;20376;-48
2022/05/15 09:33:01;;;;;;;;;;;24.50;99.90;;;;;;5051276;28;19924;-48
2022/05/15 09:35:38;;;;;;;;;;;24.40;99.90;;;;;;5050047;28;19904;-48
2022/05/15 09:43:37;;;;;;;;;;;24.50;99.90;;;;;;5051406;28;20374;-48
2022/05/15 09:46:23;;;;;;;;;;;24.50;99.90;;;;;;5051064;28;19908;-48
2022/05/15 09:48:54;;;;;;;;;;;24.50;99.90;;;;;;5051116;28;19995;-48
2022/05/15 09:51:29;;;;;;;;;;;24.50;99.90;;;;;;5051125;28;19904;-48
2022/05/15 09:53:55;;;;;;;;;;;24.50;99.90;;;;;;5051191;28;19904;-48
2022/05/15 09:56:21;;;;;;;;;;;24.50;99.90;;;;;;5050940;28;20357;-48
2022/05/15 09:59:05;;;;;;;;;;;24.50;99.90;;;;;;5050976;28;19905;-48
2022/05/15 10:01:40;;;;;;;;;;;24.60;99.90;;;;;;5054766;28;20388;-48
2022/05/15 10:04:26;;;;;;;;;;;24.60;99.90;;;;;;5054535;28;19935;-48
2022/05/15 10:06:53;;;;;;;;;;;24.60;99.90;;;;;;5054016;28;19970;-48
2022/05/15 10:09:27;;;;;;;;;;;24.60;99.90;;;;;;5054560;28;19912;-48
2022/05/15 10:11:57;;;;;;;;;;;24.70;99.90;;;;;;5054567;28;19905;-48
2022/05/15 10:14:27;;;;;;;;;;;24.70;99.90;;;;;;5054560;28;19911;-48
2022/05/15 10:16:54;;;;;;;;;;;24.70;99.90;;;;;;5054502;28;20003;-48
2022/05/15 10:19:55;;;;;;;;;;;24.70;99.90;;;;;;5054451;28;19962;-48
2022/05/15 10:22:25;;;;;;;;;;;24.70;99.90;;;;;;4973346;28;20014;-48
2022/05/15 10:24:52;;;;;;;;;;;24.70;99.90;;;;;;5040159;28;19932;-48
2022/05/15 10:27:22;;;;;;;;;;;24.80;99.90;;;;;;5054212;28;19936;-48
2022/05/15 10:29:53;;;;;;;;;;;24.80;99.90;;;;;;5054193;28;20348;-48
2022/05/15 10:32:21;;;;;;;;;;;24.80;99.90;;;;;;5054191;28;20000;-48
2022/05/15 10:34:47;;;;;;;;;;;24.90;99.90;;;;;;5054127;28;19912;-48
2022/05/15 10:37:31;;;;;;;;;;;24.90;99.90;;;;;;5054091;28;20343;-48
2022/05/15 10:40:09;;;;;;;;;;;24.90;99.90;;;;;;5054238;28;19908;-48
2022/05/15 10:42:43;;;;;;;;;;;24.90;99.90;;;;;;5053843;28;19987;-48
2022/05/15 10:45:14;;;;;;;;;;;24.90;99.90;;;;;;5053850;28;20323;-48
2022/05/15 10:47:58;;;;;;;;;;;24.90;99.90;;;;;;5053959;28;19916;-48
2022/05/15 10:50:33;;;;;;;;;;;24.90;99.90;;;;;;5053836;28;19905;-48
2022/05/15 10:57:21;;;;;;;;;;;25.00;99.90;;;;;;5054062;28;20364;-48
2022/05/15 10:58:47;;;;;;;;;;;25.00;99.90;;;;;;5053725;28;19912;-48
2022/05/15 11:01:21;;;;;;;;;;;25.00;99.90;;;;;;5053529;28;19923;-48
2022/05/15 11:04:07;;;;;;;;;;;25.00;99.90;;;;;;5053535;28;19920;-48
2022/05/15 11:06:40;;;;;;;;;;;25.00;99.90;;;;;;5052366;28;19905;-48
2022/05/15 11:09:06;;;;;;;;;;;25.00;99.90;;;;;;5052260;28;20420;-48
2022/05/15 11:11:35;;;;;;;;;;;25.00;99.90;;;;;;5051494;28;20050;-48
2022/05/15 11:14:09;;;;;;;;;;;25.00;99.90;;;;;;5053673;28;19959;-48
2022/05/15 11:16:53;;;;;;;;;;;25.10;99.90;;;;;;5052049;28;20006;-48
2022/05/15 11:19:31;;;;;;;;;;;25.10;99.90;;;;;;5052125;28;19969;-48
2022/05/15 11:21:57;;;;;;;;;;;25.10;99.90;;;;;;5053377;28;19991;-48
2022/05/15 11:24:41;;;;;;;;;;;25.10;99.90;;;;;;5053091;28;20385;-48
2022/05/15 11:27:12;;;;;;;;;;;25.10;99.90;;;;;;5052072;28;20268;-48
2022/05/15 11:29:42;;;;;;;;;;;25.10;99.90;;;;;;5053196;28;19905;-48
2022/05/15 11:32:28;;;;;;;;;;;25.10;99.90;;;;;;5053118;28;20326;-48
2022/05/15 11:35:00;;;;;;;;;;;25.10;99.90;;;;;;5052998;28;19939;-48
2022/05/15 11:37:38;;;;;;;;;;;25.10;99.90;;;;;;5052977;28;19905;-48
2022/05/15 11:40:08;;;;;;;;;;;25.20;99.90;;;;;;5053095;28;19905;-48
2022/05/15 11:42:36;;;;;;;;;;;25.20;99.90;;;;;;5053127;28;20249;-48
2022/05/15 11:45:20;;;;;;;;;;;25.20;99.90;;;;;;5052997;28;19912;-48
2022/05/15 11:47:57;;;;;;;;;;;25.20;99.90;;;;;;5052687;28;19905;-48
2022/05/15 11:50:30;;;;;;;;;;;25.20;99.90;;;;;;5052527;28;19913;-48
2022/05/15 11:52:56;;;;;;;;;;;25.20;99.90;;;;;;5052710;28;20357;-48
2022/05/15 11:55:40;;;;;;;;;;;25.20;99.90;;;;;;5052526;28;19900;-48
2022/05/15 11:58:26;;;;;;;;;;;25.20;99.90;;;;;;5052554;28;20361;-48
2022/05/15 12:01:00;;;;;;;;;;;25.30;99.90;;;;;;5052432;28;19970;-48
2022/05/15 12:03:40;;;;;;;;;;;25.20;99.90;;;;;;5052412;28;19912;-48
2022/05/15 12:06:08;;;;;;;;;;;25.30;99.90;;;;;;5052477;28;20012;-48
2022/05/15 12:08:35;;;;;;;;;;;25.30;99.90;;;;;;5052652;28;19905;-48
2022/05/15 12:11:18;;;;;;;;;;;25.30;99.90;;;;;;5052401;28;20485;-49
2022/05/15 12:13:46;;;;;;;;;;;25.30;99.90;;;;;;5052226;28;19905;-48
2022/05/15 12:16:23;;;;;;;;;;;25.30;99.90;;;;;;5052169;28;19908;-48
2022/05/15 12:19:04;;;;;;;;;;;25.30;99.90;;;;;;5052125;28;19905;-48
2022/05/15 12:21:45;;;;;;;;;;;25.30;99.90;;;;;;5052316;28;19971;-48
2022/05/15 12:24:29;;;;;;;;;;;25.30;99.90;;;;;;5051937;28;19913;-48
2022/05/15 12:27:09;;;;;;;;;;;25.30;99.90;;;;;;5051997;28;20392;-48
2022/05/15 12:29:57;;;;;;;;;;;25.30;99.90;;;;;;5052326;28;19912;-48
2022/05/15 12:32:43;;;;;;;;;;;25.30;99.90;;;;;;5051956;28;19905;-48
2022/05/15 12:35:12;;;;;;;;;;;25.30;99.90;;;;;;5037780;28;20376;-48
2022/05/15 12:37:52;;;;;;;;;;;25.30;99.90;;;;;;5052002;28;20004;-48
2022/05/15 12:40:35;;;;;;;;;;;25.40;99.90;;;;;;5051706;28;19905;-48
2022/05/15 12:43:01;;;;;;;;;;;25.40;99.90;;;;;;5051732;28;20279;-48
2022/05/15 12:45:27;;;;;;;;;;;25.40;99.90;;;;;;5051516;28;19912;-48
2022/05/15 12:48:10;;;;;;;;;;;25.40;99.90;;;;;;5051727;28;19927;-48
2022/05/15 12:50:48;;;;;;;;;;;25.50;99.90;;;;;;5051839;28;19912;-48
2022/05/15 12:53:34;;;;;;;;;;;25.50;99.90;;;;;;5051808;28;19912;-48
2022/05/15 12:56:08;;;;;;;;;;;25.50;99.90;;;;;;5037447;28;19919;-48
2022/05/15 12:58:34;;;;;;;;;;;25.60;99.90;;;;;;5051793;28;19905;-48
2022/05/15 13:01:00;;;;;;;;;;;25.50;99.90;;;;;;5051375;28;19997;-48
2022/05/15 13:03:27;;;;;;;;;;;25.60;99.90;;;;;;5051528;28;19905;-48
2022/05/15 13:06:03;;;;;;;;;;;25.60;99.90;;;;;;5051518;28;19912;-48
2022/05/15 13:09:01;;;;;;;;;;;25.60;99.90;;;;;;5051550;28;20635;-48
2022/05/15 13:11:45;;;;;;;;;;;25.70;99.90;;;;;;4996185;28;19987;-48
2022/05/15 13:14:14;;;;;;;;;;;25.70;99.90;;;;;;5051288;28;19908;-48
2022/05/15 13:16:43;;;;;;;;;;;25.60;99.90;;;;;;5051557;28;19999;-48
2022/05/15 13:19:11;;;;;;;;;;;25.60;99.90;;;;;;5051543;28;20348;-48
2022/05/15 13:21:39;;;;;;;;;;;25.60;99.90;;;;;;5049373;28;20296;-47
2022/05/15 13:24:07;;;;;;;;;;;25.60;99.90;;;;;;5036470;28;19916;-48
2022/05/15 13:26:41;;;;;;;;;;;25.70;99.90;;;;;;5050528;28;19923;-48
2022/05/15 13:29:08;;;;;;;;;;;25.70;99.90;;;;;;5061051;28;19913;-48
2022/05/15 13:31:36;;;;;;;;;;;25.70;99.90;;;;;;5049992;28;19908;-49
2022/05/15 13:34:05;;;;;;;;;;;25.70;99.90;;;;;;5051202;28;19915;-48
2022/05/15 13:36:31;;;;;;;;;;;25.70;99.90;;;;;;5054842;28;19908;-48
2022/05/15 13:44:27;;;;;;;;;;;25.60;99.90;;;;;;5054097;28;19995;-48
2022/05/15 13:47:05;;;;;;;;;;;25.50;99.90;;;;;;5055161;28;19959;-48
2022/05/15 13:49:37;;;;;;;;;;;25.50;99.90;;;;;;5054920;28;20003;-48
2022/05/15 13:52:21;;;;;;;;;;;25.50;99.90;;;;;;5054536;28;19905;-49
2022/05/15 13:54:47;;;;;;;;;;;25.50;99.90;;;;;;5054345;28;19911;-48
2022/05/15 13:57:13;;;;;;;;;;;25.50;99.90;;;;;;5054735;28;20275;-48
2022/05/15 13:59:51;;;;;;;;;;;25.50;99.90;;;;;;5035158;28;19916;-49
2022/05/15 14:02:21;;;;;;;;;;;25.50;99.90;;;;;;5037767;28;19913;-48
2022/05/15 14:04:48;;;;;;;;;;;25.60;99.90;;;;;;5043140;28;20015;-48
2022/05/15 14:07:33;;;;;;;;;;;25.50;99.90;;;;;;5047342;28;19940;-48
2022/05/15 14:10:00;;;;;;;;;;;25.60;99.90;;;;;;5036022;28;19956;-48
2022/05/15 14:12:44;;;;;;;;;;;25.60;99.90;;;;;;5048402;28;19909;-48
2022/05/15 14:15:30;;;;;;;;;;;25.60;99.90;;;;;;5050418;28;19905;-48
2022/05/15 14:17:58;;;;;;;;;;;25.60;99.90;;;;;;5050928;28;19915;-48
2022/05/15 14:20:44;;;;;;;;;;;25.60;99.90;;;;;;5051389;28;20306;-50
2022/05/15 14:23:11;;;;;;;;;;;25.60;99.90;;;;;;5045630;28;19959;-51
2022/05/15 14:25:37;;;;;;;;;;;25.60;99.90;;;;;;5053722;28;19952;-48
2022/05/15 14:28:03;;;;;;;;;;;25.60;99.90;;;;;;5041755;28;20361;-52
2022/05/15 14:30:29;;;;;;;;;;;25.60;99.90;;;;;;5049933;28;19911;-50
2022/05/15 14:32:56;;;;;;;;;;;25.60;99.90;;;;;;5045426;28;19916;-50
2022/05/15 14:35:26;;;;;;;;;;;25.60;99.90;;;;;;5048575;28;19958;-50
2022/05/15 14:37:52;;;;;;;;;;;25.60;99.90;;;;;;5051189;28;19904;-50
2022/05/15 14:40:18;;;;;;;;;;;25.60;99.90;;;;;;5047313;28;20008;-50
2022/05/15 14:42:43;;;;;;;;;;;25.60;99.90;;;;;;5050820;28;19984;-49
2022/05/15 14:45:11;;;;;;;;;;;25.70;99.90;;;;;;5047565;28;19920;-51
2022/05/15 14:47:36;;;;;;;;;;;25.70;99.90;;;;;;5044341;28;19999;-51
2022/05/15 14:50:05;;;;;;;;;;;25.70;99.90;;;;;;5050595;28;19995;-50
2022/05/15 14:52:32;;;;;;;;;;;25.70;99.90;;;;;;5052643;28;19909;-52